• Join FlightAware (Why Join?)
  • Login
  • US Flag 
07:55AM EDT


 

Airport Tracker/Info


-or-


 

Live Flight TrackerFlight Track Log ✈ TRS409 ✈ 27-Apr-2013 ✈ KMCO - KMSP

Flight Track Log - Related Links

Times and Time Zones

All times are in EDT time to prevent confusion due to time zone crossing. See the TRS409 flight status page for this flight to view local times or setup timezone preferences in your user account.

Time Position Orientation Groundspeed Altitude Reporting Facility
EDT Latitude Longitude Course Direction KTS MPH feet Rate Location/Type
07:37PM 28.4000 -81.3000 196° South 171 197 800  Level Orlando TRACON
07:38PM 28.3500 -81.3167 196° South 239 275 2,100 1,500 Climbing Orlando TRACON
07:39PM 28.3333 -81.4000 257° West 287 330 4,000 2,160 Climbing Orlando TRACON
07:40PM 28.3333 -81.4833 270° West 285 328 6,700 2,340 Climbing Orlando TRACON
07:41PM 28.3333 -81.5833 270° West 285 328 8,700 1,800 Climbing Orlando TRACON
07:43PM 28.3264 -81.7467 267° West 316 364 11,600 1,440 Climbing Jacksonville Center
07:44PM 28.3272 -81.8572 271° West 327 376 12,700 1,380 Climbing Jacksonville Center
07:45PM 28.3469 -81.9703 281° West 357 411 14,400 1,680 Climbing Jacksonville Center
07:46PM 28.3853 -82.0833 291° West 373 429 16,100 1,560 Climbing Jacksonville Center
07:47PM 28.4256 -82.2008 291° West 384 442 17,600 1,500 Climbing Jacksonville Center
07:48PM 28.4783 -82.3117 298° West 395 455 19,200 1,740 Climbing Jacksonville Center
07:49PM 28.5642 -82.4008 318° Northwest 406 467 21,100 1,680 Climbing Jacksonville Center
07:50PM 28.6689 -82.4689 330° Northwest 411 473 22,600 1,500 Climbing Jacksonville Center
07:51PM 28.7714 -82.5325 331° Northwest 416 479 24,200 1,440 Climbing Jacksonville Center
07:52PM 28.8800 -82.5986 332° Northwest 428 493 25,500 900 Climbing Jacksonville Center
07:53PM 28.9678 -82.6956 316° Northwest 428 493 26,000 720 Climbing Jacksonville Center
07:54PM 29.0744 -82.7739 327° Northwest 438 504 27,000 960 Climbing Jacksonville Center
07:55PM 29.1892 -82.8356 335° Northwest 449 517 28,000 1,380 Climbing Jacksonville Center
07:56PM 29.3061 -82.8950 336° Northwest 455 524 29,800 1,440 Climbing Jacksonville Center
07:57PM 29.4189 -82.9544 335° Northwest 455 524 30,900 1,020 Climbing Jacksonville Center
07:58PM 29.5358 -83.0192 334° Northwest 450 518 31,900 540 Climbing Jacksonville Center
07:59PM 29.6483 -83.0767 336° Northwest 450 518 32,000  Climbing Jacksonville Center
08:00PM 29.7672 -83.1294 339° North 450 518 32,000 -60 Level Jacksonville Center
08:01PM 29.8819 -83.1825 338° Northwest 441 507 31,900  Descending Jacksonville Center
08:02PM 30.0008 -83.2356 339° North 441 507 32,000  Climbing Jacksonville Center
08:03PM 30.1050 -83.2864 337° Northwest 446 513 32,000  Level Jacksonville Center
08:04PM 30.2239 -83.3397 339° North 451 519 32,000 -60 Level Jacksonville Center
08:05PM 30.3386 -83.3933 338° Northwest 451 519 31,900  Descending Jacksonville Center
08:06PM 30.4553 -83.4469 338° Northwest 451 519 32,000  Climbing Jacksonville Center
08:07PM 30.5719 -83.5031 338° Northwest 451 519 32,000  Level Jacksonville Center
08:08PM 30.6867 -83.5569 338° Northwest 451 519 32,000  Level Jacksonville Center
08:09PM 30.8031 -83.6108 338° Northwest 451 519 32,000  Level Jacksonville Center
08:10PM 30.9178 -83.6700 336° Northwest 451 519 32,000  Level Jacksonville Center
08:11PM 31.1244 -83.7697 338° Northwest 452 520 32,000  Level Atlanta Center
08:12PM 31.2414 -83.8253 338° Northwest 452 520 32,000  Level Atlanta Center
08:13PM 31.3583 -83.8808 338° Northwest 452 520 32,000  Level Atlanta Center
08:14PM 31.4711 -83.9392 336° Northwest 452 520 32,000  Level Atlanta Center
08:15PM 31.5942 -83.9778 345° North 452 520 32,000  Level Atlanta Center
08:16PM 31.7194 -84.0047 350° North 452 520 32,000  Level Atlanta Center
08:17PM 31.8594 -84.0364 349° North 452 520 32,000  Level Atlanta Center
08:18PM 31.9825 -84.0608 350° North 452 520 32,000  Level Atlanta Center
08:19PM 32.1078 -84.0903 349° North 452 520 32,000  Level Atlanta Center
08:20PM 32.2328 -84.1200 349° North 452 520 32,000  Level Atlanta Center
08:21PM 32.3539 -84.1469 349° North 446 513 32,000  Level Atlanta Center
08:22PM 32.4792 -84.1742 350° North 446 513 32,000  Level Atlanta Center
08:23PM 32.6022 -84.2042 348° North 446 513 32,000  Level Atlanta Center
08:24PM 32.7275 -84.2289 351° North 446 513 32,000  Level Atlanta Center
08:25PM 32.8506 -84.2589 348° North 446 513 32,000  Level Atlanta Center
08:26PM 32.9736 -84.2864 349° North 446 513 32,000  Level Atlanta Center
08:27PM 33.0947 -84.3142 349° North 447 514 32,000  Level Atlanta Center
08:28PM 33.2178 -84.3417 349° North 447 514 32,000  Level Atlanta Center
08:29PM 33.3408 -84.3719 348° North 447 514 32,000  Level Atlanta Center
08:30PM 33.4639 -84.3975 350° North 447 514 32,000  Level Atlanta Center
08:31PM 33.5892 -84.4278 349° North 453 521 32,000  Level Atlanta Center
08:32PM 33.7039 -84.4583 348° North 440 506 32,000  Level Atlanta Center
08:33PM 33.8103 -84.4839 349° North 440 506 32,000  Level Atlanta Center
08:34PM 33.9519 -84.5172 349° North 446 513 32,000  Level Atlanta Center
08:35PM 34.0792 -84.5478 349° North 451 519 32,000  Level Atlanta Center
08:36PM 34.2064 -84.5764 349° North 457 526 32,000  Level Atlanta Center
08:37PM 34.3294 -84.6072 348° North 452 520 32,000  Level Atlanta Center
08:38PM 34.4503 -84.6383 348° North 447 514 32,000  Level Atlanta Center
08:39PM 34.5733 -84.6669 349° North 447 514 32,000  Level Atlanta Center
08:40PM 34.6775 -84.6931 348° North 447 514 32,000  Level Atlanta Center
08:41PM 34.7983 -84.7242 348° North 441 507 32,000  Level Atlanta Center
08:42PM 34.9192 -84.7531 349° North 441 507 32,000  Level Atlanta Center
08:43PM 35.0378 -84.7972 343° North 436 502 32,000  Level Atlanta Center
08:44PM 35.1564 -84.8442 342° North 436 502 32,000  Level Atlanta Center
08:45PM 35.2731 -84.8883 343° North 436 502 32,000  Level Atlanta Center
08:46PM 35.3936 -84.9356 342° North 436 502 32,000  Level Atlanta Center
08:47PM 35.5122 -84.9803 343° North 441 507 32,000  Level Atlanta Center
08:48PM 35.6308 -85.0275 342° North 441 507 32,000  Level Atlanta Center
08:49PM 35.7514 -85.0750 342° North 441 507 32,000  Level Atlanta Center
08:51PM 35.9544 -85.1500 343° North 455 524 32,000  Level Indianapolis Center
08:52PM 36.0747 -85.1978 342° North 455 524 32,000  Level Indianapolis Center
08:53PM 36.1953 -85.2439 343° North 452 520 32,000  Level Indianapolis Center
08:54PM 36.3128 -85.2908 342° North 445 512 32,100 540 Climbing Indianapolis Center
08:55PM 36.4314 -85.3378 342° North 445 512 33,200 900 Climbing Indianapolis Center
08:56PM 36.5483 -85.3836 343° North 442 509 34,000 360 Climbing Indianapolis Center
08:57PM 36.6647 -85.4294 342° North 438 504 34,000  Level Indianapolis Center
08:58PM 36.8033 -85.4853 342° North 437 503 34,000  Level Indianapolis Center
08:59PM 36.9064 -85.5269 342° North 445 512 34,000  Level Indianapolis Center
09:00PM 37.0236 -85.5731 343° North 438 504 34,000  Level Indianapolis Center
09:01PM 37.1392 -85.6197 342° North 434 499 34,000  Level Indianapolis Center
09:02PM 37.2561 -85.6672 342° North 437 503 34,000  Level Indianapolis Center
09:03PM 37.3800 -85.7167 342° North 434 499 34,000  Level Indianapolis Center
09:04PM 37.4953 -85.7619 343° North 432 497 34,000  Level Indianapolis Center
09:05PM 37.6111 -85.8108 342° North 438 504 34,000  Level Indianapolis Center
09:06PM 37.7286 -85.8603 342° North 442 509 34,000  Level Indianapolis Center
09:07PM 37.8469 -85.9089 342° North 445 512 34,000  Level Indianapolis Center
09:08PM 37.9647 -85.9572 342° North 445 512 34,000  Level Indianapolis Center
09:09PM 38.0825 -86.0056 342° North 445 512 34,000  Level Indianapolis Center
09:10PM 38.2006 -86.0544 342° North 445 512 34,000  Level Indianapolis Center
09:11PM 38.3192 -86.1042 342° North 449 517 34,000  Level Indianapolis Center
09:12PM 38.4383 -86.1547 342° North 451 519 34,000  Level Indianapolis Center
09:13PM 38.5586 -86.2047 342° North 453 521 34,000  Level Indianapolis Center
09:14PM 38.6808 -86.2553 342° North 459 528 34,000  Level Indianapolis Center
09:15PM 38.8039 -86.3078 342° North 464 534 34,000  Level Indianapolis Center
09:16PM 38.9311 -86.3628 341° North 467 537 34,000  Level Indianapolis Center
09:17PM 39.0558 -86.4147 342° North 468 539 34,000  Level Indianapolis Center
09:18PM 39.2031 -86.4778 342° North 472 543 34,000  Level Indianapolis Center
09:19PM 39.3078 -86.5233 341° North 472 543 34,000  Level Indianapolis Center
09:20PM 39.4358 -86.5778 342° North 476 548 34,000  Level Indianapolis Center
09:21PM 39.5658 -86.6339 342° North 483 556 34,000  Level Indianapolis Center
09:22PM 39.6947 -86.6914 341° North 482 555 34,000  Level Indianapolis Center
09:23PM 39.8242 -86.7467 342° North 480 552 34,000  Level Indianapolis Center
09:24PM 39.9503 -86.8022 341° North 473 544 34,000  Level Indianapolis Center
09:25PM 40.0761 -86.8569 342° North 472 543 34,000  Level Indianapolis Center
09:26PM 40.2011 -86.9139 341° North 474 545 34,000  Level Chicago Center
09:27PM 40.3258 -86.9681 342° North 469 540 34,000  Level Chicago Center
09:28PM 40.4492 -87.0244 341° North 469 540 34,000  Level Chicago Center
09:29PM 40.5733 -87.0794 341° North 468 539 34,000  Level Chicago Center
09:30PM 40.6919 -87.1333 341° North 464 534 34,000  Level Chicago Center
09:31PM 40.8128 -87.1903 340° North 466 536 34,000  Level Chicago Center
09:32PM 40.9339 -87.2450 341° North 463 533 34,000  Level Chicago Center
09:34PM 41.0567 -87.3017 341° North 468 539 34,000  Level Chicago Center
09:35PM 41.1783 -87.3556 342° North 466 536 34,000  Level Chicago Center
09:36PM 41.3214 -87.4239 340° North 463 533 34,000  Level Chicago Center
09:37PM 41.4408 -87.4797 341° North 461 531 34,000  Level Chicago Center
09:38PM 41.5597 -87.5353 341° North 460 529 34,000  Level Chicago Center
09:39PM 41.6792 -87.5917 341° North 461 531 34,000  Level Chicago Center
09:40PM 41.7972 -87.6478 340° North 459 528 34,000  Level Chicago Center
09:41PM 41.9153 -87.7036 341° North 456 525 34,000  Level Chicago Center
09:42PM 42.0325 -87.7592 341° North 453 521 34,000  Level Chicago Center
09:43PM 42.1711 -87.8242 341° North 445 512 34,000  Level Chicago Center
09:44PM 42.2844 -87.8892 337° Northwest 447 514 34,000  Level Chicago Center
09:45PM 42.3781 -87.9939 320° Northwest 443 510 34,000  Level Chicago Center
09:46PM 42.4750 -88.1014 321° Northwest 445 512 34,000  Level Chicago Center
09:47PM 42.5714 -88.2083 321° Northwest 447 514 34,000  Level Chicago Center
09:48PM 42.6664 -88.3175 320° Northwest 446 513 34,000  Level Chicago Center
09:49PM 42.7622 -88.4264 320° Northwest 447 514 34,000  Level Chicago Center
09:50PM 42.8575 -88.5344 320° Northwest 444 511 34,000  Level Chicago Center
09:51PM 42.9522 -88.6436 320° Northwest 443 510 34,000  Level Chicago Center
09:52PM 43.0481 -88.7525 320° Northwest 444 511 34,000  Level Chicago Center
09:53PM 43.1433 -88.8625 320° Northwest 445 512 34,000  Level Chicago Center
09:54PM 43.2400 -88.9731 320° Northwest 448 516 34,000  Level Chicago Center
09:55PM 43.3353 -89.0833 320° Northwest 445 512 34,000  Level Chicago Center
09:56PM 43.4306 -89.1953 320° Northwest 446 513 34,000  Level Chicago Center
09:57PM 43.5253 -89.3067 320° Northwest 445 512 34,000  Level Chicago Center
09:58PM 43.6197 -89.4178 320° Northwest 445 512 34,000  Level Chicago Center
09:58PM 43.6664 -89.4731 319° Northwest 444 511 34,000  Level Minneapolis Center
09:59PM 43.7586 -89.5833 319° Northwest 439 505 34,000  Level Minneapolis Center
10:00PM 43.8511 -89.6928 320° Northwest 438 504 34,000  Level Minneapolis Center
10:01PM 43.9428 -89.8014 320° Northwest 433 498 34,000  Level Minneapolis Center
10:02PM 44.0328 -89.9122 318° Northwest 433 498 34,000  Level Minneapolis Center
10:03PM 44.1139 -90.0317 313° West 426 490 34,000  Level Minneapolis Center
10:04PM 44.1747 -90.1739 301° West 425 489 34,000  Level Minneapolis Center
10:05PM 44.2347 -90.3164 300° West 427 491 34,000  Level Minneapolis Center
10:06PM 44.2958 -90.4586 301° West 426 490 34,000  Level Minneapolis Center
10:07PM 44.3550 -90.6011 300° West 424 488 34,000  Level Minneapolis Center
10:08PM 44.4167 -90.7436 301° West 426 490 34,000  Level Minneapolis Center
10:09PM 44.4758 -90.8856 300° West 425 489 34,000  Level Minneapolis Center
10:10PM 44.5367 -91.0300 301° West 426 490 34,000 -360 Level Minneapolis Center
10:11PM 44.5964 -91.1725 301° West 427 491 33,300 -1,860 Descending Minneapolis Center
10:12PM 44.6550 -91.3147 300° West 424 488 30,300 -2,760 Descending Minneapolis Center
10:13PM 44.7131 -91.4564 300° West 422 486 27,700 -2,580 Descending Minneapolis Center
10:14PM 44.7697 -91.5956 300° West 417 480 25,100 -2,880 Descending Minneapolis Center
10:15PM 44.8361 -91.7569 300° West 404 465 21,900 -2,640 Descending Minneapolis Center
10:16PM 44.8769 -91.8594 299° West 388 447 19,800 -2,580 Descending Minneapolis Center
10:17PM 44.9381 -92.0103 300° West 373 429 16,800 -2,760 Descending Minneapolis Center
10:19PM 44.9869 -92.1319 300° West 360 414 14,300 -2,460 Descending Minneapolis Center
10:20PM 45.0328 -92.2483 299° West 343 395 11,800 -1,620 Descending Minneapolis Center
10:21PM 45.0347 -92.3775 271° West 343 395 11,100 -420 Descending Minneapolis Center
10:22PM 45.0150 -92.5075 258° West 341 392 11,000 -60 Descending Minneapolis Center
10:23PM 44.9947 -92.6358 257° West 337 388 11,000  Level Minneapolis Center
10:24PM 44.9739 -92.7631 257° West 335 386 11,000 -300 Level Minneapolis Center
10:25PM 44.9544 -92.8856 257° West 324 373 10,500 -1,020 Descending Minneapolis Center
10:26PM 44.9367 -92.9911 257° West 282 325 9,000 -1,260 Descending Minneapolis Center
10:27PM 44.9444 -93.1083 275° West 270 311 8,000 -1,320 Descending Minneapolis Center
10:28PM 44.9864 -93.1958 304° West 272 313 6,400 -1,860 Descending Minneapolis Center
10:29PM 45.0289 -93.2822 305° West 271 312 4,300 -1,320 Descending Minneapolis Center
10:30PM 45.0244 -93.3569 265° West 208 239 3,800 -660 Descending Minneapolis Center
10:31PM 44.9889 -93.4008 221° Southwest 171 197 3,000 -420 Descending Minneapolis Center
10:32PM 44.9458 -93.3672 151° Southeast 174 200 3,000 -480 Level Minneapolis Center
10:33PM 44.9219 -93.3133 122° Southeast 157 181 2,100 -780 Descending Minneapolis Center
10:34PM 44.9031 -93.2697 121° Southeast 134 154 1,500 -600 Descending Minneapolis Center
10:36PM 44.8820 -93.2218 231° Southwest  Level Estimated
10:43PM 44.8820 -93.2218 231° Southwest  Level Estimated